createdAt,value
2022-11-07T00:00:14.483Z,6.38
2022-11-07T00:03:17.555Z,6.47
2022-11-07T00:06:20.763Z,6.52
2022-11-07T00:09:26.605Z,6.54
2022-11-07T00:12:29.917Z,6.62
2022-11-07T00:15:32.831Z,6.73
2022-11-07T00:18:36.445Z,6.80
2022-11-07T00:21:46.067Z,6.93
2022-11-07T00:24:51.950Z,7.01
2022-11-07T00:27:54.792Z,7.07
2022-11-07T00:30:59.415Z,7.15
2022-11-07T00:34:02.163Z,7.39
2022-11-07T00:37:05.905Z,7.47
2022-11-07T00:40:09.748Z,7.65
2022-11-07T00:43:12.822Z,7.74
2022-11-07T00:46:16.957Z,7.85
2022-11-07T00:49:19.801Z,7.90
2022-11-07T00:52:25.599Z,7.92
2022-11-07T00:55:28.323Z,8.01
2022-11-07T00:58:35.013Z,7.94
2022-11-07T01:01:37.957Z,7.95
2022-11-07T01:05:02.291Z,7.83
2022-11-07T01:08:05.595Z,7.90
2022-11-07T01:11:08.765Z,7.79
2022-11-07T01:14:12.524Z,7.86
2022-11-07T01:17:15.321Z,7.84
2022-11-07T01:20:18.254Z,7.89
2022-11-07T01:23:22.903Z,7.79
2022-11-07T01:26:25.733Z,7.71
2022-11-07T01:29:28.619Z,7.69
2022-11-07T01:32:31.918Z,7.68
2022-11-07T01:35:35.385Z,7.61
2022-11-07T01:38:40.070Z,7.64
2022-11-07T01:41:45.950Z,7.51
2022-11-07T01:44:57.872Z,7.49
2022-11-07T01:48:02.103Z,7.37
2022-11-07T01:51:05.380Z,7.32
2022-11-07T01:54:08.531Z,7.33
2022-11-07T01:57:38.660Z,7.33
2022-11-07T02:00:41.580Z,7.31
2022-11-07T02:03:44.569Z,7.27
2022-11-07T02:07:04.847Z,7.26
2022-11-07T02:10:09.096Z,7.25
2022-11-07T02:13:30.178Z,7.14
2022-11-07T02:16:35.177Z,7.09
2022-11-07T02:19:43.231Z,6.98
2022-11-07T02:22:56.033Z,6.86
2022-11-07T02:25:58.910Z,6.69
2022-11-07T02:29:04.338Z,6.61
2022-11-07T02:32:09.543Z,6.47
2022-11-07T02:35:38.920Z,6.56
2022-11-07T02:38:42.098Z,6.55
2022-11-07T02:41:48.552Z,6.56
2022-11-07T02:44:53.408Z,6.55
2022-11-07T02:47:56.392Z,6.48
2022-11-07T02:51:02.212Z,6.36
2022-11-07T02:54:08.110Z,6.22
2022-11-07T02:57:11.971Z,6.16
2022-11-07T03:00:16.159Z,6.00
2022-11-07T03:03:18.896Z,5.87
2022-11-07T03:06:26.350Z,5.75
2022-11-07T03:09:29.461Z,5.73
2022-11-07T03:12:32.335Z,5.47
2022-11-07T03:15:35.925Z,5.35
2022-11-07T03:18:41.803Z,5.17
2022-11-07T03:21:44.590Z,5.11
2022-11-07T03:24:47.321Z,4.87
2022-11-07T03:27:50.751Z,4.93
2022-11-07T03:30:53.908Z,4.96
2022-11-07T03:33:56.719Z,5.04
2022-11-07T03:36:59.634Z,5.01
2022-11-07T03:40:02.572Z,4.95
2022-11-07T03:43:05.383Z,4.92
2022-11-07T03:46:08.293Z,4.89
2022-11-07T03:49:14.313Z,4.85
2022-11-07T03:52:20.067Z,4.83
2022-11-07T03:55:26.040Z,4.70
2022-11-07T03:58:29.903Z,4.69
2022-11-07T04:01:33.057Z,4.69
2022-11-07T04:04:35.966Z,4.57
2022-11-07T04:07:38.805Z,4.54
2022-11-07T04:10:41.827Z,4.47
2022-11-07T04:14:05.891Z,4.43
2022-11-07T04:17:20.798Z,4.39
2022-11-07T04:20:28.132Z,4.37
2022-11-07T04:23:30.937Z,4.35
2022-11-07T04:26:52.225Z,4.28
2022-11-07T04:29:58.103Z,4.24
2022-11-07T04:33:02.213Z,4.26
2022-11-07T04:36:08.393Z,4.26
2022-11-07T04:39:11.308Z,4.24
2022-11-07T04:42:14.329Z,4.26
2022-11-07T04:45:17.957Z,4.17
2022-11-07T04:48:21.250Z,4.08
2022-11-07T04:51:24.761Z,4.08
2022-11-07T04:54:27.708Z,4.05
2022-11-07T04:57:30.536Z,4.06
2022-11-07T05:00:33.895Z,4.11
2022-11-07T05:03:41.601Z,4.08
2022-11-07T05:06:44.801Z,4.06
2022-11-07T05:09:47.837Z,4.10
2022-11-07T05:12:51.192Z,4.10
2022-11-07T05:15:54.057Z,4.21
2022-11-07T05:18:56.991Z,4.27
2022-11-07T05:22:18.148Z,4.31
2022-11-07T05:25:20.995Z,4.50
2022-11-07T05:28:38.334Z,4.56
2022-11-07T05:31:42.327Z,4.76
2022-11-07T05:34:45.249Z,5.06
2022-11-07T05:37:48.951Z,5.24
2022-11-07T05:40:51.671Z,5.30
2022-11-07T05:43:54.562Z,5.65
2022-11-07T05:46:58.372Z,5.89
2022-11-07T05:50:01.174Z,6.10
2022-11-07T05:53:04.818Z,5.97
2022-11-07T05:56:07.720Z,6.04
2022-11-07T05:59:11.493Z,5.90
2022-11-07T06:02:14.648Z,5.80
2022-11-07T06:05:21.743Z,5.80
2022-11-07T06:08:27.018Z,5.85
2022-11-07T06:11:30.490Z,5.92
2022-11-07T06:14:33.364Z,6.01
2022-11-07T06:17:36.357Z,6.08
2022-11-07T06:20:39.885Z,6.22
2022-11-07T06:23:43.118Z,6.22
2022-11-07T06:26:45.995Z,6.62
2022-11-07T06:29:48.893Z,6.81
2022-11-07T06:32:51.882Z,6.97
2022-11-07T06:35:54.678Z,7.11
2022-11-07T06:38:57.469Z,7.21
2022-11-07T06:42:00.368Z,7.30
2022-11-07T06:45:04.404Z,7.34
2022-11-07T06:48:07.792Z,7.43
2022-11-07T06:51:11.252Z,7.43
2022-11-07T06:54:14.482Z,7.50
2022-11-07T06:57:17.917Z,7.56
2022-11-07T07:00:20.852Z,7.61
2022-11-07T07:03:23.678Z,7.62
2022-11-07T07:06:26.999Z,7.68
2022-11-07T07:09:29.991Z,7.71
2022-11-07T07:12:32.777Z,7.75
2022-11-07T07:15:49.983Z,7.77
2022-11-07T07:18:53.579Z,7.78
2022-11-07T07:21:57.473Z,7.80
2022-11-07T07:25:01.626Z,7.76
2022-11-07T07:28:04.722Z,7.75
2022-11-07T07:31:13.912Z,7.73
2022-11-07T07:34:16.898Z,7.75
2022-11-07T07:37:19.830Z,7.75
2022-11-07T07:40:24.087Z,7.75
2022-11-07T07:43:31.064Z,7.78
2022-11-07T07:46:33.909Z,7.80
2022-11-07T07:49:36.862Z,7.81
2022-11-07T07:52:40.353Z,7.83
2022-11-07T07:55:43.448Z,7.86
2022-11-07T07:58:46.786Z,7.88
2022-11-07T08:01:55.183Z,7.90
2022-11-07T08:04:59.627Z,7.94
2022-11-07T08:08:02.591Z,7.94
2022-11-07T08:11:07.984Z,7.97
2022-11-07T08:14:11.871Z,8.00
2022-11-07T08:17:14.779Z,8.04
2022-11-07T08:20:24.853Z,8.07
2022-11-07T08:23:27.946Z,8.10
2022-11-07T08:26:31.643Z,8.16
2022-11-07T08:29:34.488Z,8.20
2022-11-07T08:32:38.020Z,8.22
2022-11-07T08:35:42.720Z,8.24
2022-11-07T08:38:46.242Z,8.26
2022-11-07T08:41:49.422Z,8.29
2022-11-07T08:44:52.452Z,8.36
2022-11-07T08:47:59.412Z,8.37
2022-11-07T08:51:03.403Z,8.40
2022-11-07T08:54:06.352Z,8.43
2022-11-07T08:57:09.192Z,8.47
2022-11-07T09:00:12.567Z,8.55
2022-11-07T09:03:48.909Z,8.62
2022-11-07T09:06:41.306Z,8.65
2022-11-07T09:09:44.216Z,8.73
2022-11-07T09:12:49.422Z,8.83
2022-11-07T09:15:57.362Z,8.99
2022-11-07T09:19:00.147Z,9.11
2022-11-07T09:22:03.062Z,9.22
2022-11-07T09:25:06.186Z,9.29
2022-11-07T09:28:18.114Z,9.37
2022-11-07T09:31:21.449Z,9.45
2022-11-07T09:34:24.337Z,9.53
2022-11-07T09:37:28.481Z,9.54
2022-11-07T09:41:13.565Z,9.62
2022-11-07T09:44:41.375Z,9.57
2022-11-07T09:47:52.265Z,9.54
2022-11-07T09:50:55.929Z,9.46
2022-11-07T09:54:01.664Z,9.47
2022-11-07T09:57:04.646Z,9.54
2022-11-07T10:00:18.664Z,9.59
2022-11-07T10:03:24.200Z,9.64
2022-11-07T10:06:33.419Z,9.69
2022-11-07T10:09:42.447Z,9.86
2022-11-07T10:13:07.215Z,10.03
2022-11-07T10:16:27.204Z,10.27
2022-11-07T10:19:38.768Z,10.88
2022-11-07T10:23:18.528Z,12.17
2022-11-07T10:26:24.702Z,12.68
2022-11-07T10:29:48.223Z,12.96
2022-11-07T10:33:18.905Z,13.39
2022-11-07T10:36:27.680Z,12.42
2022-11-07T10:39:31.364Z,11.91
2022-11-07T10:42:34.772Z,11.68
2022-11-07T10:45:40.724Z,11.54
2022-11-07T10:48:55.027Z,11.42
2022-11-07T10:52:18.559Z,11.36
2022-11-07T10:55:21.551Z,11.41
2022-11-07T10:58:29.396Z,11.44
2022-11-07T11:01:32.462Z,11.56
2022-11-07T11:04:38.368Z,11.50
2022-11-07T11:07:41.848Z,11.48
2022-11-07T11:10:44.922Z,11.43
2022-11-07T11:14:00.889Z,11.30
2022-11-07T11:17:04.122Z,11.32
2022-11-07T11:20:19.815Z,11.14
2022-11-07T11:23:25.063Z,11.23
2022-11-07T11:26:33.149Z,11.15
2022-11-07T11:29:56.162Z,11.22
2022-11-07T11:33:07.998Z,11.43
2022-11-07T11:36:15.868Z,11.54
2022-11-07T11:39:29.326Z,11.58
2022-11-07T11:42:50.825Z,11.69
2022-11-07T11:46:09.939Z,11.80
2022-11-07T11:49:17.302Z,12.09
2022-11-07T11:52:23.173Z,12.42
2022-11-07T11:55:31.620Z,12.54
2022-11-07T11:58:48.909Z,12.51
2022-11-07T12:02:33.198Z,12.71
2022-11-07T12:05:57.416Z,12.91
2022-11-07T12:09:06.941Z,12.90
2022-11-07T12:12:36.545Z,13.04
2022-11-07T12:15:51.285Z,13.04
2022-11-07T12:18:57.774Z,13.26
2022-11-07T12:22:14.231Z,14.94
2022-11-07T12:25:40.992Z,16.44
2022-11-07T12:29:05.506Z,17.03
2022-11-07T12:32:15.336Z,17.74
2022-11-07T12:35:33.968Z,17.48
2022-11-07T12:38:55.401Z,17.30
2022-11-07T12:42:22.114Z,18.29
2022-11-07T12:45:58.822Z,18.30
2022-11-07T12:49:39.124Z,18.78
2022-11-07T12:52:57.395Z,18.13
2022-11-07T12:56:14.030Z,17.51
2022-11-07T12:59:24.391Z,18.34
2022-11-07T13:02:30.438Z,18.35
2022-11-07T13:06:06.197Z,18.72
2022-11-07T13:09:30.522Z,18.70
2022-11-07T13:12:59.821Z,19.64
2022-11-07T13:16:23.129Z,19.11
2022-11-07T13:19:33.426Z,18.85
2022-11-07T13:22:38.577Z,18.85
2022-11-07T13:25:41.628Z,18.12
2022-11-07T13:28:59.579Z,17.91
2022-11-07T13:32:13.398Z,18.18
2022-11-07T13:35:28.426Z,18.13
2022-11-07T13:38:31.929Z,17.73
2022-11-07T13:41:35.247Z,18.10
2022-11-07T13:44:38.630Z,18.18
2022-11-07T13:47:42.177Z,18.53
2022-11-07T13:50:50.232Z,19.13
2022-11-07T13:54:16.093Z,19.38
2022-11-07T13:57:31.915Z,19.15
2022-11-07T14:00:35.025Z,19.33
2022-11-07T14:03:38.402Z,20.01
2022-11-07T14:06:41.558Z,19.75
2022-11-07T14:09:44.754Z,19.54
2022-11-07T14:12:48.183Z,20.21
2022-11-07T14:15:55.482Z,20.63
2022-11-07T14:19:01.031Z,20.23
2022-11-07T14:22:03.949Z,19.67
2022-11-07T14:25:31.110Z,18.89
2022-11-07T14:28:39.216Z,19.07
2022-11-07T14:31:42.527Z,19.06
2022-11-07T14:34:47.305Z,19.34
2022-11-07T14:37:50.660Z,19.23
2022-11-07T14:40:55.890Z,19.00
2022-11-07T14:44:03.372Z,17.96
2022-11-07T14:47:08.669Z,17.28
2022-11-07T14:50:29.722Z,16.76
2022-11-07T14:53:47.240Z,15.93
2022-11-07T14:56:56.076Z,15.17
2022-11-07T14:59:59.157Z,14.63
2022-11-07T15:03:02.201Z,14.14
2022-11-07T15:06:05.867Z,13.69
2022-11-07T15:09:09.387Z,13.30
2022-11-07T15:12:18.915Z,12.92
2022-11-07T15:15:36.267Z,12.49
2022-11-07T15:18:42.940Z,12.20
2022-11-07T15:22:22.026Z,11.77
2022-11-07T15:25:34.489Z,11.44
2022-11-07T15:28:48.174Z,11.16
2022-11-07T15:31:51.285Z,10.92
2022-11-07T15:35:23.020Z,10.67
2022-11-07T15:38:27.040Z,10.44
2022-11-07T15:41:29.919Z,10.24
2022-11-07T15:44:32.991Z,9.95
2022-11-07T15:47:36.042Z,9.83
2022-11-07T15:50:43.357Z,9.59
2022-11-07T15:53:46.183Z,9.45
2022-11-07T15:56:50.127Z,9.31
2022-11-07T15:59:55.403Z,9.06
2022-11-07T16:02:59.173Z,8.93
2022-11-07T16:06:02.941Z,8.88
2022-11-07T16:09:13.269Z,8.80
2022-11-07T16:12:19.780Z,8.63
2022-11-07T16:15:24.354Z,8.48
2022-11-07T16:18:27.879Z,8.36
2022-11-07T16:21:31.077Z,8.23
2022-11-07T16:24:34.021Z,8.15
2022-11-07T16:27:36.844Z,7.95
2022-11-07T16:30:39.877Z,7.84
2022-11-07T16:33:43.033Z,7.76
2022-11-07T16:36:47.611Z,7.60
2022-11-07T16:39:50.780Z,7.54
2022-11-07T16:42:53.612Z,7.47
2022-11-07T16:45:57.529Z,7.28
2022-11-07T16:49:13.759Z,7.21
2022-11-07T16:52:18.435Z,7.12
2022-11-07T16:55:21.329Z,7.04
2022-11-07T16:58:33.984Z,7.02
2022-11-07T17:01:37.158Z,6.92
2022-11-07T17:04:40.421Z,6.83
2022-11-07T17:07:43.601Z,6.79
2022-11-07T17:10:47.138Z,6.62
2022-11-07T17:13:50.271Z,6.53
2022-11-07T17:16:53.306Z,6.47
2022-11-07T17:19:57.417Z,6.41
2022-11-07T17:23:00.890Z,6.37
2022-11-07T17:26:03.923Z,6.25
2022-11-07T17:29:10.622Z,6.17
2022-11-07T17:32:13.412Z,6.08
2022-11-07T17:35:31.619Z,5.94
2022-11-07T17:38:38.197Z,5.79
2022-11-07T17:41:45.423Z,5.83
2022-11-07T17:44:50.325Z,5.76
2022-11-07T17:47:54.679Z,5.70
2022-11-07T17:50:58.421Z,5.62
2022-11-07T17:54:01.579Z,5.55
2022-11-07T17:57:09.242Z,5.53
2022-11-07T18:00:19.454Z,5.44
2022-11-07T18:03:22.349Z,5.46
2022-11-07T18:06:26.497Z,5.46
2022-11-07T18:09:29.429Z,5.38
2022-11-07T18:12:32.331Z,5.33
2022-11-07T18:15:35.338Z,5.25
2022-11-07T18:18:38.633Z,5.25
2022-11-07T18:21:41.944Z,5.20
2022-11-07T18:24:46.934Z,5.11
2022-11-07T18:27:50.031Z,4.98
2022-11-07T18:30:52.969Z,4.87
2022-11-07T18:33:58.419Z,4.85
2022-11-07T18:37:01.805Z,4.89
2022-11-07T18:40:08.237Z,4.83
2022-11-07T18:43:12.030Z,4.86
2022-11-07T18:46:17.742Z,4.78
2022-11-07T18:49:20.679Z,4.66
2022-11-07T18:52:23.879Z,4.62
2022-11-07T18:55:27.730Z,4.58
2022-11-07T18:58:32.981Z,4.50
2022-11-07T19:01:36.359Z,4.48
2022-11-07T19:04:40.547Z,4.42
2022-11-07T19:07:45.202Z,4.43
2022-11-07T19:10:48.697Z,4.32
2022-11-07T19:13:53.225Z,4.31
2022-11-07T19:16:59.853Z,4.29
2022-11-07T19:20:04.552Z,4.29
2022-11-07T19:23:08.534Z,4.24
2022-11-07T19:26:12.883Z,4.12
2022-11-07T19:29:17.118Z,4.07
2022-11-07T19:32:20.344Z,3.98
2022-11-07T19:35:26.697Z,3.99
2022-11-07T19:38:34.405Z,3.96
2022-11-07T19:41:38.115Z,3.92
2022-11-07T19:44:46.396Z,4.00
2022-11-07T19:47:55.300Z,3.93
2022-11-07T19:50:58.515Z,3.87
2022-11-07T19:54:01.676Z,3.89
2022-11-07T19:57:04.518Z,3.91
2022-11-07T20:00:09.113Z,3.86
2022-11-07T20:03:12.346Z,3.78
2022-11-07T20:06:17.520Z,3.76
2022-11-07T20:09:21.031Z,3.69
2022-11-07T20:12:24.840Z,3.69
2022-11-07T20:15:28.177Z,3.63
2022-11-07T20:18:31.753Z,3.59
2022-11-07T20:21:35.107Z,3.54
2022-11-07T20:24:40.075Z,3.54
2022-11-07T20:27:43.326Z,3.56
2022-11-07T20:30:47.682Z,3.56
2022-11-07T20:33:51.868Z,3.52
2022-11-07T20:36:56.227Z,3.44
2022-11-07T20:40:00.010Z,3.43
2022-11-07T20:43:03.292Z,3.40
2022-11-07T20:46:09.812Z,3.42
2022-11-07T20:49:14.845Z,3.38
2022-11-07T20:52:17.828Z,3.43
2022-11-07T20:55:20.879Z,3.42
2022-11-07T20:58:26.795Z,3.40
2022-11-07T21:01:36.441Z,3.35
2022-11-07T21:05:03.039Z,3.32
2022-11-07T21:08:04.271Z,3.21
2022-11-07T21:11:07.593Z,3.20
2022-11-07T21:14:10.890Z,3.17
2022-11-07T21:17:17.056Z,3.12
2022-11-07T21:20:20.760Z,3.14
2022-11-07T21:23:27.207Z,3.09
2022-11-07T21:26:36.207Z,3.09
2022-11-07T21:29:38.930Z,3.02
2022-11-07T21:32:43.401Z,3.00
2022-11-07T21:35:46.278Z,3.01
2022-11-07T21:38:49.251Z,2.95
2022-11-07T21:41:55.133Z,2.89
2022-11-07T21:44:58.163Z,2.82
2022-11-07T21:48:01.020Z,2.78
2022-11-07T21:51:20.593Z,2.72
2022-11-07T21:54:23.455Z,2.71
2022-11-07T21:57:26.504Z,2.74
2022-11-07T22:00:33.120Z,2.80
2022-11-07T22:04:04.729Z,2.79
2022-11-07T22:07:04.744Z,2.74
2022-11-07T22:10:08.342Z,2.73
2022-11-07T22:13:11.214Z,2.69
2022-11-07T22:16:19.663Z,2.66
2022-11-07T22:19:22.490Z,2.63
2022-11-07T22:22:25.335Z,2.64
2022-11-07T22:25:28.433Z,2.62
2022-11-07T22:28:31.887Z,2.56
2022-11-07T22:31:34.997Z,2.57
2022-11-07T22:34:37.835Z,2.58
2022-11-07T22:37:40.710Z,2.52
2022-11-07T22:40:47.517Z,2.50
2022-11-07T22:43:51.166Z,2.45
2022-11-07T22:46:57.013Z,2.40
2022-11-07T22:50:06.658Z,2.32
2022-11-07T22:53:10.826Z,2.33
2022-11-07T22:56:20.205Z,2.31
2022-11-07T22:59:23.123Z,2.29
2022-11-07T23:02:25.952Z,2.34
2022-11-07T23:05:28.919Z,2.33
2022-11-07T23:08:35.299Z,2.26
2022-11-07T23:11:46.934Z,2.29
2022-11-07T23:14:50.636Z,2.20
2022-11-07T23:17:56.351Z,2.22
2022-11-07T23:21:12.529Z,2.18
2022-11-07T23:24:15.436Z,2.24
2022-11-07T23:27:18.991Z,2.21
2022-11-07T23:30:24.970Z,2.18
2022-11-07T23:33:28.033Z,2.15
2022-11-07T23:36:31.049Z,2.15
2022-11-07T23:39:33.851Z,2.14
2022-11-07T23:42:36.657Z,2.12
2022-11-07T23:45:57.919Z,2.11
2022-11-07T23:49:19.355Z,2.08
2022-11-07T23:52:22.225Z,1.99
2022-11-07T23:55:40.099Z,1.97
2022-11-07T23:59:01.403Z,1.90
